Time;durP1;ratioP1;P1;durP2;ratioP2;P2;SDS_P1;SDS_P2;PMS_P1;PMS_P2;Temp;Humidity;BMP_temperature;BMP_pressure;BME280_temperature;BME280_humidity;BME280_pressure;Samples;Min_cycle;Max_cycle;Signal;HPM_P1;HPM_P2
2024/03/20 00:02:27;;;;;;;7.77;5.73;;;;;;;;;;5019666;28;20213;-85
2024/03/20 00:05:32;;;;;;;9.73;6.27;;;;;;;;;;5020462;28;20182;-84
2024/03/20 00:08:36;;;;;;;6.60;5.70;;;;;;;;;;5019487;28;20181;-84
2024/03/20 00:11:40;;;;;;;7.93;6.10;;;;;;;;;;5020105;28;20213;-83
2024/03/20 00:14:44;;;;;;;8.93;5.77;;;;;;;;;;5019754;28;20186;-84
2024/03/20 00:17:49;;;;;;;7.40;5.37;;;;;;;;;;5019216;28;20177;-84
2024/03/20 00:20:53;;;;;;;8.30;6.20;;;;;;;;;;5019064;28;20209;-85
2024/03/20 00:23:57;;;;;;;7.13;5.53;;;;;;;;;;5030672;28;20638;-83
2024/03/20 00:27:01;;;;;;;7.77;6.13;;;;;;;;;;5018432;28;20185;-84
2024/03/20 00:30:08;;;;;;;8.73;6.07;;;;;;;;;;5018601;28;20183;-84
2024/03/20 00:33:11;;;;;;;7.00;5.57;;;;;;;;;;5019127;28;20217;-84
2024/03/20 00:36:16;;;;;;;7.80;6.40;;;;;;;;;;5030161;28;20169;-83
2024/03/20 00:39:20;;;;;;;9.67;5.50;;;;;;;;;;5018706;28;20678;-84
2024/03/20 00:42:25;;;;;;;8.27;5.60;;;;;;;;;;5019601;28;20217;-84
2024/03/20 00:45:29;;;;;;;7.27;5.87;;;;;;;;;;5018511;28;20213;-84
2024/03/20 00:48:33;;;;;;;6.83;5.37;;;;;;;;;;5018748;28;20182;-84
2024/03/20 00:51:38;;;;;;;8.17;5.60;;;;;;;;;;5019421;28;20214;-85
2024/03/20 00:54:45;;;;;;;6.97;5.17;;;;;;;;;;5019774;28;20182;-83
2024/03/20 00:57:50;;;;;;;10.10;6.13;;;;;;;;;;5018831;28;20189;-85
2024/03/20 01:00:54;;;;;;;7.23;5.47;;;;;;;;;;5018699;28;20205;-84
2024/03/20 01:03:58;;;;;;;7.07;5.73;;;;;;;;;;5019466;28;20185;-84
2024/03/20 01:07:02;;;;;;;8.40;6.10;;;;;;;;;;5007603;28;20186;-85
2024/03/20 01:10:07;;;;;;;7.63;5.90;;;;;;;;;;5018843;28;20635;-84
2024/03/20 01:13:11;;;;;;;6.57;5.40;;;;;;;;;;5018801;28;20225;-84
2024/03/20 01:16:15;;;;;;;8.33;5.50;;;;;;;;;;5019729;28;20185;-84
2024/03/20 01:19:19;;;;;;;10.60;5.87;;;;;;;;;;5019240;28;20634;-84
2024/03/20 01:22:24;;;;;;;9.23;6.10;;;;;;;;;;5020975;28;20702;-84
2024/03/20 01:25:28;;;;;;;8.57;6.17;;;;;;;;;;5009392;28;20189;-85
2024/03/20 01:28:32;;;;;;;8.57;6.00;;;;;;;;;;5018107;28;20646;-84
2024/03/20 01:31:36;;;;;;;10.33;6.70;;;;;;;;;;5018980;28;20697;-84
2024/03/20 01:34:40;;;;;;;8.77;5.90;;;;;;;;;;5018533;28;20185;-84
2024/03/20 01:37:44;;;;;;;7.07;5.63;;;;;;;;;;5019371;28;20248;-83
2024/03/20 01:40:51;;;;;;;9.97;6.17;;;;;;;;;;5018573;28;20578;-83
2024/03/20 01:43:55;;;;;;;11.67;6.40;;;;;;;;;;5018143;28;20205;-84
2024/03/20 01:47:01;;;;;;;7.10;5.50;;;;;;;;;;5019177;28;20178;-84
2024/03/20 01:50:07;;;;;;;10.07;7.00;;;;;;;;;;5019104;28;20512;-84
2024/03/20 01:53:13;;;;;;;8.47;6.63;;;;;;;;;;5019044;28;20217;-84
2024/03/20 01:56:17;;;;;;;9.93;7.83;;;;;;;;;;5018300;28;20185;-83
2024/03/20 01:59:21;;;;;;;12.00;7.00;;;;;;;;;;5018047;28;20185;-83
2024/03/20 02:02:27;;;;;;;7.63;6.30;;;;;;;;;;5017768;28;20209;-84
2024/03/20 02:05:31;;;;;;;7.30;6.07;;;;;;;;;;5006791;28;20659;-83
2024/03/20 02:08:35;;;;;;;9.03;6.77;;;;;;;;;;5017799;28;20181;-84
2024/03/20 02:11:39;;;;;;;9.00;5.80;;;;;;;;;;5018437;28;20213;-84
2024/03/20 02:14:43;;;;;;;8.10;6.00;;;;;;;;;;5017918;28;20181;-84
2024/03/20 02:17:48;;;;;;;9.70;7.10;;;;;;;;;;5028424;28;20181;-84
2024/03/20 02:20:52;;;;;;;9.90;6.87;;;;;;;;;;5018493;28;20209;-84
2024/03/20 02:23:56;;;;;;;10.80;6.60;;;;;;;;;;5016976;28;20177;-84
2024/03/20 02:27:01;;;;;;;8.87;6.27;;;;;;;;;;5017805;28;20181;-84
2024/03/20 02:30:08;;;;;;;8.17;5.90;;;;;;;;;;5017439;28;20182;-83
2024/03/20 02:33:12;;;;;;;8.47;6.13;;;;;;;;;;5017105;28;20225;-85
2024/03/20 02:36:16;;;;;;;9.93;6.80;;;;;;;;;;5018099;28;20181;-85
2024/03/20 02:39:21;;;;;;;8.97;6.23;;;;;;;;;;5028939;28;20185;-83
2024/03/20 02:42:25;;;;;;;7.80;5.90;;;;;;;;;;5017756;28;20213;-84
2024/03/20 02:45:29;;;;;;;10.17;6.37;;;;;;;;;;5019114;28;20675;-84
2024/03/20 02:48:34;;;;;;;8.10;6.30;;;;;;;;;;5017574;28;20181;-84
2024/03/20 02:51:38;;;;;;;7.77;6.10;;;;;;;;;;5006333;28;20212;-84
2024/03/20 02:54:42;;;;;;;10.90;6.00;;;;;;;;;;5006188;28;20185;-84
2024/03/20 02:57:47;;;;;;;9.07;6.67;;;;;;;;;;5017686;28;20181;-83
2024/03/20 03:00:51;;;;;;;10.10;6.60;;;;;;;;;;5016786;28;20213;-84
2024/03/20 03:03:55;;;;;;;12.50;7.33;;;;;;;;;;5017234;28;20177;-84
2024/03/20 03:07:00;;;;;;;11.23;7.90;;;;;;;;;;5016928;28;20523;-84
2024/03/20 03:10:07;;;;;;;9.73;7.27;;;;;;;;;;4994452;28;20185;-84
2024/03/20 03:13:12;;;;;;;11.33;7.57;;;;;;;;;;5017700;28;20216;-84
2024/03/20 03:16:16;;;;;;;10.73;7.63;;;;;;;;;;5028050;28;20178;-84
2024/03/20 03:19:20;;;;;;;11.17;8.13;;;;;;;;;;5017202;28;20182;-84
2024/03/20 03:22:24;;;;;;;11.07;8.17;;;;;;;;;;5028243;28;20213;-85
2024/03/20 03:25:29;;;;;;;9.70;7.33;;;;;;;;;;5019955;28;20630;-84
2024/03/20 03:28:33;;;;;;;13.40;8.00;;;;;;;;;;5017787;28;20189;-84
2024/03/20 03:31:37;;;;;;;9.27;7.07;;;;;;;;;;5017531;28;20213;-84
2024/03/20 03:34:42;;;;;;;11.83;7.97;;;;;;;;;;5017680;28;20182;-84
2024/03/20 03:37:46;;;;;;;13.10;8.27;;;;;;;;;;5028681;28;20181;-84
2024/03/20 03:40:59;;;;;;;10.43;7.10;;;;;;;;;;5017278;28;20210;-85
2024/03/20 03:44:03;;;;;;;10.03;7.60;;;;;;;;;;5017623;28;20197;-84
2024/03/20 03:47:11;;;;;;;10.80;7.93;;;;;;;;;;5005475;28;20181;-83
2024/03/20 03:50:15;;;;;;;10.33;7.20;;;;;;;;;;5028220;28;20182;-85
2024/03/20 03:53:19;;;;;;;11.03;7.23;;;;;;;;;;5015886;28;20571;-84
2024/03/20 03:56:23;;;;;;;9.67;6.80;;;;;;;;;;5016234;28;20643;-84
2024/03/20 03:59:27;;;;;;;9.80;6.97;;;;;;;;;;5016327;28;20187;-84
2024/03/20 04:02:31;;;;;;;11.23;7.37;;;;;;;;;;5017013;28;20210;-85
2024/03/20 04:05:36;;;;;;;14.80;8.13;;;;;;;;;;5016894;28;20627;-84
2024/03/20 04:08:40;;;;;;;13.67;7.70;;;;;;;;;;5016158;28;20177;-83
2024/03/20 04:11:44;;;;;;;10.10;7.83;;;;;;;;;;5027554;28;20217;-84
2024/03/20 04:14:49;;;;;;;12.50;8.40;;;;;;;;;;5016011;28;20186;-84
2024/03/20 04:17:53;;;;;;;15.83;8.43;;;;;;;;;;5015812;28;20181;-84
2024/03/20 04:20:57;;;;;;;12.27;8.27;;;;;;;;;;5015894;28;20205;-84
2024/03/20 04:24:01;;;;;;;13.60;9.40;;;;;;;;;;5015849;28;20181;-83
2024/03/20 04:27:06;;;;;;;11.60;8.13;;;;;;;;;;5031408;28;20177;-84
2024/03/20 04:30:13;;;;;;;13.70;8.80;;;;;;;;;;5019461;28;20186;-84
2024/03/20 04:33:17;;;;;;;10.87;8.13;;;;;;;;;;5019215;28;20213;-85
2024/03/20 04:36:22;;;;;;;12.33;8.73;;;;;;;;;;5020152;28;20181;-83
2024/03/20 04:39:32;;;;;;;10.87;8.47;;;;;;;;;;5019312;28;20178;-83
2024/03/20 04:42:37;;;;;;;11.43;8.53;;;;;;;;;;5019571;28;20225;-84
2024/03/20 04:45:41;;;;;;;14.17;9.90;;;;;;;;;;5018840;28;20197;-83
2024/03/20 04:48:45;;;;;;;12.13;9.13;;;;;;;;;;5019235;28;20181;-83
2024/03/20 04:51:50;;;;;;;14.53;10.40;;;;;;;;;;5020239;28;20693;-83
2024/03/20 04:54:56;;;;;;;14.03;10.17;;;;;;;;;;5019513;28;20177;-84
2024/03/20 04:58:00;;;;;;;14.00;10.50;;;;;;;;;;5020514;28;20177;-82
2024/03/20 05:01:04;;;;;;;14.03;10.10;;;;;;;;;;5019371;28;20209;-83
2024/03/20 05:04:08;;;;;;;17.87;11.40;;;;;;;;;;5018123;28;20173;-83
2024/03/20 05:07:13;;;;;;;15.60;10.77;;;;;;;;;;5019926;28;20627;-83
2024/03/20 05:10:17;;;;;;;15.37;10.90;;;;;;;;;;5018758;28;20173;-84
2024/03/20 05:13:21;;;;;;;13.63;11.23;;;;;;;;;;5029685;28;20213;-83
2024/03/20 05:16:25;;;;;;;17.20;12.10;;;;;;;;;;5018290;28;20181;-85
2024/03/20 05:19:29;;;;;;;17.60;11.77;;;;;;;;;;5019536;28;20181;-82
2024/03/20 05:22:33;;;;;;;17.73;11.77;;;;;;;;;;5018404;28;20236;-83
2024/03/20 05:25:39;;;;;;;15.40;11.10;;;;;;;;;;5018295;28;20181;-83
2024/03/20 05:28:43;;;;;;;14.97;10.67;;;;;;;;;;5020119;28;20182;-84
2024/03/20 05:31:48;;;;;;;14.00;10.30;;;;;;;;;;5021325;28;20217;-84
2024/03/20 05:34:52;;;;;;;14.37;10.10;;;;;;;;;;5021605;28;20627;-84
2024/03/20 05:37:56;;;;;;;14.67;11.00;;;;;;;;;;5020977;28;20185;-84
2024/03/20 05:41:00;;;;;;;15.43;10.90;;;;;;;;;;5019787;28;20209;-84
2024/03/20 05:44:05;;;;;;;16.30;11.47;;;;;;;;;;5018814;28;20205;-84
2024/03/20 05:47:09;;;;;;;15.87;12.07;;;;;;;;;;5019516;28;20182;-83
2024/03/20 05:50:13;;;;;;;17.20;11.37;;;;;;;;;;5019584;28;20181;-83
2024/03/20 05:53:18;;;;;;;16.90;11.43;;;;;;;;;;5018333;28;20213;-83
2024/03/20 05:56:24;;;;;;;16.60;11.30;;;;;;;;;;5018250;28;20182;-85
2024/03/20 05:59:29;;;;;;;17.90;12.37;;;;;;;;;;5019520;28;20634;-83
2024/03/20 06:02:33;;;;;;;27.60;15.43;;;;;;;;;;5029141;28;20709;-84
2024/03/20 06:05:37;;;;;;;20.50;12.30;;;;;;;;;;5018370;28;20182;-84
2024/03/20 06:08:42;;;;;;;18.10;13.60;;;;;;;;;;5017475;28;20185;-83
2024/03/20 06:11:46;;;;;;;19.10;13.63;;;;;;;;;;5017691;28;20213;-84
2024/03/20 06:14:55;;;;;;;20.00;12.57;;;;;;;;;;5016783;28;20182;-84
2024/03/20 06:17:59;;;;;;;15.27;11.03;;;;;;;;;;5016885;28;20185;-83
2024/03/20 06:21:04;;;;;;;17.47;12.23;;;;;;;;;;5017217;28;20181;-84
2024/03/20 06:24:08;;;;;;;14.33;10.37;;;;;;;;;;5017789;28;20663;-83
2024/03/20 06:27:12;;;;;;;14.70;9.77;;;;;;;;;;5017626;28;20531;-82
2024/03/20 06:30:16;;;;;;;16.27;9.73;;;;;;;;;;5017739;28;20662;-83
2024/03/20 06:33:20;;;;;;;17.90;12.03;;;;;;;;;;5016400;28;20213;-83
2024/03/20 06:36:24;;;;;;;23.13;14.60;;;;;;;;;;5017965;28;20181;-85
2024/03/20 06:39:29;;;;;;;16.13;11.73;;;;;;;;;;5017649;28;20177;-83
2024/03/20 06:42:35;;;;;;;17.70;11.10;;;;;;;;;;5016608;28;20710;-83
2024/03/20 06:45:49;;;;;;;16.40;12.10;;;;;;;;;;5017260;28;20200;-83
2024/03/20 06:48:54;;;;;;;18.60;12.13;;;;;;;;;;5016368;28;20182;-83
2024/03/20 06:51:59;;;;;;;17.27;12.63;;;;;;;;;;5017542;28;20213;-83
2024/03/20 06:55:04;;;;;;;17.10;12.20;;;;;;;;;;5016402;28;20182;-83
2024/03/20 06:58:11;;;;;;;16.03;11.60;;;;;;;;;;5016371;28;20181;-84
2024/03/20 07:01:15;;;;;;;14.23;10.90;;;;;;;;;;5016871;28;20189;-84
2024/03/20 07:04:19;;;;;;;13.83;10.63;;;;;;;;;;5017562;28;20181;-85
2024/03/20 07:07:23;;;;;;;14.07;9.47;;;;;;;;;;5016223;28;20192;-83
2024/03/20 07:10:28;;;;;;;10.80;8.67;;;;;;;;;;5016988;28;20186;-83
2024/03/20 07:13:32;;;;;;;11.13;9.07;;;;;;;;;;5015262;28;20209;-84
2024/03/20 07:16:36;;;;;;;13.60;9.43;;;;;;;;;;5015965;28;20185;-85
2024/03/20 07:19:40;;;;;;;12.13;9.00;;;;;;;;;;5015496;28;20185;-84
2024/03/20 07:22:44;;;;;;;11.83;9.10;;;;;;;;;;5015383;28;20594;-83
2024/03/20 07:25:49;;;;;;;14.83;9.30;;;;;;;;;;5004013;28;20182;-86
2024/03/20 07:28:53;;;;;;;12.00;8.90;;;;;;;;;;5026273;28;20178;-85
2024/03/20 07:31:57;;;;;;;12.60;9.47;;;;;;;;;;5026484;28;20201;-85
2024/03/20 07:35:02;;;;;;;16.03;10.00;;;;;;;;;;5003319;28;20535;-85
2024/03/20 07:38:09;;;;;;;12.50;10.97;;;;;;;;;;5015228;28;20181;-85
2024/03/20 07:41:15;;;;;;;10.50;6.67;;;;;;;;;;5014219;28;20188;-85
2024/03/20 07:44:19;;;;;;;8.10;6.50;;;;;;;;;;5014861;28;20209;-84
2024/03/20 07:47:25;;;;;;;7.43;6.33;;;;;;;;;;5014532;28;20532;-85
2024/03/20 07:50:29;;;;;;;8.20;5.57;;;;;;;;;;5015095;28;20182;-84
2024/03/20 07:53:33;;;;;;;6.03;5.33;;;;;;;;;;5014718;28;20702;-84
2024/03/20 07:56:38;;;;;;;7.93;4.83;;;;;;;;;;5026138;28;20646;-84
2024/03/20 07:59:44;;;;;;;5.57;4.43;;;;;;;;;;4994210;28;20181;-84
2024/03/20 08:02:48;;;;;;;16.87;5.20;;;;;;;;;;5007175;28;20225;-85
2024/03/20 08:05:54;;;;;;;6.27;4.70;;;;;;;;;;5018956;28;20181;-84
2024/03/20 08:08:59;;;;;;;6.27;4.40;;;;;;;;;;5019517;28;20662;-83
2024/03/20 08:12:07;;;;;;;6.10;4.37;;;;;;;;;;5043426;28;20556;-83
2024/03/20 08:15:11;;;;;;;8.07;4.40;;;;;;;;;;5031663;28;20181;-86
2024/03/20 08:18:16;;;;;;;6.17;5.07;;;;;;;;;;4998811;28;20181;-84
2024/03/20 08:21:20;;;;;;;6.63;5.00;;;;;;;;;;4997723;28;20174;-83
2024/03/20 08:24:25;;;;;;;6.90;4.97;;;;;;;;;;5020830;28;20177;-83
2024/03/20 08:27:29;;;;;;;7.47;4.33;;;;;;;;;;4998151;28;20181;-84
2024/03/20 08:30:33;;;;;;;6.57;4.10;;;;;;;;;;5021066;28;20178;-84
2024/03/20 08:33:40;;;;;;;5.13;4.10;;;;;;;;;;5009350;28;20213;-83
2024/03/20 08:36:44;;;;;;;5.70;4.23;;;;;;;;;;5021165;28;20185;-84
2024/03/20 08:39:49;;;;;;;6.90;4.57;;;;;;;;;;4998351;28;20178;-84
2024/03/20 08:42:53;;;;;;;4.73;4.00;;;;;;;;;;5019498;28;20229;-84
2024/03/20 08:45:58;;;;;;;6.03;4.70;;;;;;;;;;5021656;28;20190;-84
2024/03/20 08:49:04;;;;;;;4.97;4.10;;;;;;;;;;5021553;28;20185;-85
2024/03/20 08:52:09;;;;;;;5.00;3.97;;;;;;;;;;5031745;28;20213;-82
2024/03/20 08:55:13;;;;;;;4.70;3.83;;;;;;;;;;5019515;28;20174;-83
2024/03/20 08:58:17;;;;;;;10.30;4.03;;;;;;;;;;5019005;28;20185;-84
2024/03/20 09:01:22;;;;;;;4.50;3.53;;;;;;;;;;5031336;28;20173;-84
2024/03/20 09:04:26;;;;;;;3.83;3.40;;;;;;;;;;5041533;28;20178;-83
2024/03/20 09:07:30;;;;;;;4.20;3.60;;;;;;;;;;5020441;28;20186;-83
2024/03/20 09:10:36;;;;;;;5.53;3.70;;;;;;;;;;5019943;28;20532;-84
2024/03/20 09:13:40;;;;;;;4.43;3.40;;;;;;;;;;5019146;28;20177;-84
2024/03/20 09:16:49;;;;;;;4.13;3.20;;;;;;;;;;5019467;28;20181;-84
2024/03/20 09:19:54;;;;;;;5.40;3.40;;;;;;;;;;5030358;28;20182;-84
2024/03/20 09:23:01;;;;;;;4.07;3.00;;;;;;;;;;5029613;28;20221;-84
2024/03/20 09:26:05;;;;;;;3.33;2.60;;;;;;;;;;5030013;28;20177;-84
2024/03/20 09:29:11;;;;;;;3.60;2.97;;;;;;;;;;5016625;28;20174;-86
2024/03/20 09:32:15;;;;;;;4.43;2.93;;;;;;;;;;5016206;28;20217;-84
2024/03/20 09:35:20;;;;;;;4.40;3.17;;;;;;;;;;5027215;28;20190;-86
2024/03/20 09:38:25;;;;;;;4.53;3.40;;;;;;;;;;5016989;28;20178;-86
2024/03/20 09:41:32;;;;;;;3.67;3.00;;;;;;;;;;5015736;28;20543;-86
2024/03/20 09:44:36;;;;;;;6.30;3.47;;;;;;;;;;5016389;28;20202;-86
2024/03/20 09:47:40;;;;;;;5.50;3.03;;;;;;;;;;5017433;28;20177;-86
2024/03/20 09:50:44;;;;;;;5.07;3.00;;;;;;;;;;5005082;28;20185;-86
2024/03/20 09:53:51;;;;;;;4.00;3.10;;;;;;;;;;5017030;28;20181;-86
2024/03/20 09:56:55;;;;;;;4.17;2.70;;;;;;;;;;5016047;28;20181;-86
2024/03/20 10:00:00;;;;;;;4.47;2.97;;;;;;;;;;5016752;28;20181;-86
2024/03/20 10:03:05;;;;;;;5.20;2.70;;;;;;;;;;5004589;28;20224;-86
2024/03/20 10:06:10;;;;;;;4.17;2.97;;;;;;;;;;5016315;28;20177;-86
2024/03/20 10:09:16;;;;;;;4.17;3.00;;;;;;;;;;5026933;28;20183;-86
2024/03/20 10:12:20;;;;;;;5.13;3.07;;;;;;;;;;5003768;28;20210;-86
2024/03/20 10:15:26;;;;;;;3.33;3.03;;;;;;;;;;5027758;28;20185;-86
2024/03/20 10:18:30;;;;;;;4.47;2.80;;;;;;;;;;5005429;28;20185;-86
2024/03/20 10:21:34;;;;;;;6.17;2.90;;;;;;;;;;5016076;28;20181;-86
2024/03/20 10:24:41;;;;;;;3.80;2.90;;;;;;;;;;5018532;28;20182;-85
2024/03/20 10:27:46;;;;;;;4.07;2.90;;;;;;;;;;5030376;28;20181;-87
2024/03/20 10:30:51;;;;;;;4.80;3.30;;;;;;;;;;5017218;28;20190;-86
2024/03/20 10:33:58;;;;;;;5.43;3.30;;;;;;;;;;5018703;28;20183;-85
2024/03/20 10:37:03;;;;;;;5.07;2.87;;;;;;;;;;5005822;28;20516;-84
2024/03/20 10:40:14;;;;;;;5.47;3.70;;;;;;;;;;5016630;28;20185;-84
2024/03/20 10:43:20;;;;;;;4.30;3.13;;;;;;;;;;5017060;28;20225;-85
2024/03/20 10:46:24;;;;;;;4.37;2.73;;;;;;;;;;5017542;28;20177;-85
2024/03/20 10:49:29;;;;;;;4.63;2.90;;;;;;;;;;5005156;28;20173;-84
2024/03/20 10:52:34;;;;;;;3.60;2.57;;;;;;;;;;5016704;28;20567;-84
2024/03/20 10:55:39;;;;;;;3.97;3.27;;;;;;;;;;5016187;28;20185;-84
2024/03/20 10:58:47;;;;;;;5.30;2.97;;;;;;;;;;5016956;28;20209;-85
2024/03/20 11:02:00;;;;;;;3.17;2.80;;;;;;;;;;5016277;28;20218;-84
2024/03/20 11:05:38;;;;;;;5.30;3.00;;;;;;;;;;5015984;28;20178;-85
2024/03/20 11:08:53;;;;;;;3.27;2.70;;;;;;;;;;5004447;28;20185;-85
2024/03/20 11:12:06;;;;;;;6.87;3.30;;;;;;;;;;5016036;28;20221;-84
2024/03/20 11:15:15;;;;;;;3.13;2.90;;;;;;;;;;5016345;28;20177;-84
2024/03/20 11:18:21;;;;;;;4.43;2.90;;;;;;;;;;5016211;28;20186;-85
2024/03/20 11:21:25;;;;;;;4.23;3.30;;;;;;;;;;5016061;28;20631;-84
2024/03/20 11:24:30;;;;;;;2.83;2.53;;;;;;;;;;5016179;28;20205;-84
2024/03/20 11:27:35;;;;;;;4.87;3.10;;;;;;;;;;5016822;28;20186;-84
2024/03/20 11:30:39;;;;;;;4.30;3.23;;;;;;;;;;5015586;28;20173;-85
2024/03/20 11:33:45;;;;;;;4.10;2.97;;;;;;;;;;5015450;28;20177;-84
2024/03/20 11:36:50;;;;;;;3.07;2.77;;;;;;;;;;5019202;28;20181;-84
2024/03/20 11:39:54;;;;;;;4.50;2.53;;;;;;;;;;5031146;28;20199;-85
2024/03/20 11:42:58;;;;;;;4.97;2.57;;;;;;;;;;5019566;28;20221;-84
2024/03/20 11:46:02;;;;;;;3.43;2.80;;;;;;;;;;5022607;28;20173;-84
2024/03/20 11:49:07;;;;;;;4.27;2.90;;;;;;;;;;5011389;28;20182;-84
2024/03/20 11:52:18;;;;;;;4.00;2.97;;;;;;;;;;5022565;28;20221;-84
2024/03/20 11:55:22;;;;;;;4.07;3.30;;;;;;;;;;5021065;28;20178;-82
2024/03/20 11:58:34;;;;;;;4.50;3.40;;;;;;;;;;5020763;28;20178;-84
2024/03/20 12:01:38;;;;;;;3.60;3.13;;;;;;;;;;5019486;28;20209;-82
2024/03/20 12:04:44;;;;;;;4.60;3.43;;;;;;;;;;5019156;28;20202;-82
2024/03/20 12:07:55;;;;;;;4.27;3.30;;;;;;;;;;5019222;28;20181;-81
2024/03/20 12:10:59;;;;;;;3.40;3.00;;;;;;;;;;5018084;28;20181;-81
2024/03/20 12:14:04;;;;;;;4.63;2.90;;;;;;;;;;5019079;28;20177;-82
2024/03/20 12:17:11;;;;;;;4.63;3.13;;;;;;;;;;5018573;28;20178;-82
2024/03/20 12:20:15;;;;;;;4.30;2.87;;;;;;;;;;5018547;28;20626;-81
2024/03/20 12:23:19;;;;;;;3.07;2.60;;;;;;;;;;5018259;28;20221;-82
2024/03/20 12:26:28;;;;;;;4.57;3.53;;;;;;;;;;5018647;28;20181;-81
2024/03/20 12:29:32;;;;;;;3.80;3.10;;;;;;;;;;5018751;28;20174;-83
2024/03/20 12:32:36;;;;;;;3.97;3.13;;;;;;;;;;5018445;28;20221;-81
2024/03/20 12:35:41;;;;;;;4.30;2.80;;;;;;;;;;5017478;28;20524;-81
2024/03/20 12:38:45;;;;;;;4.13;3.20;;;;;;;;;;5018019;28;20178;-82
2024/03/20 12:41:49;;;;;;;3.97;3.00;;;;;;;;;;5018505;28;20216;-82
2024/03/20 12:44:54;;;;;;;3.53;3.00;;;;;;;;;;5017567;28;20222;-82
2024/03/20 12:47:59;;;;;;;3.17;2.70;;;;;;;;;;5017950;28;20186;-82
2024/03/20 12:51:04;;;;;;;6.83;2.60;;;;;;;;;;5018378;28;20279;-83
2024/03/20 12:54:14;;;;;;;3.93;2.90;;;;;;;;;;5028685;28;20185;-82
2024/03/20 12:57:21;;;;;;;3.00;2.70;;;;;;;;;;5018364;28;20185;-83
2024/03/20 13:00:27;;;;;;;3.77;2.30;;;;;;;;;;5017748;28;20180;-82
2024/03/20 13:03:31;;;;;;;3.43;2.63;;;;;;;;;;5018238;28;20224;-81
2024/03/20 13:06:36;;;;;;;9.03;2.57;;;;;;;;;;5018464;28;20184;-82
2024/03/20 13:09:40;;;;;;;4.17;2.57;;;;;;;;;;5018589;28;20184;-85
2024/03/20 13:12:45;;;;;;;3.63;2.50;;;;;;;;;;5018626;28;20217;-84
2024/03/20 13:15:50;;;;;;;3.73;2.30;;;;;;;;;;5017533;28;20178;-84
2024/03/20 13:18:58;;;;;;;4.10;2.37;;;;;;;;;;5018326;28;20621;-84
2024/03/20 13:22:12;;;;;;;3.27;2.30;;;;;;;;;;5017766;28;20222;-84
2024/03/20 13:25:18;;;;;;;3.97;2.50;;;;;;;;;;5028456;28;20215;-84
2024/03/20 13:28:30;;;;;;;3.23;2.27;;;;;;;;;;5029878;28;20184;-83
2024/03/20 13:31:34;;;;;;;3.57;2.80;;;;;;;;;;5004467;28;20187;-83
2024/03/20 13:34:39;;;;;;;6.23;2.70;;;;;;;;;;5017107;28;20626;-83
2024/03/20 13:37:45;;;;;;;4.20;2.67;;;;;;;;;;5016897;28;20181;-84
2024/03/20 13:41:01;;;;;;;3.17;2.30;;;;;;;;;;5006457;28;20185;-84
2024/03/20 13:44:13;;;;;;;3.83;2.80;;;;;;;;;;5005453;28;20691;-85
2024/03/20 13:47:17;;;;;;;3.47;2.63;;;;;;;;;;5018215;28;20182;-84
2024/03/20 13:50:22;;;;;;;3.50;2.40;;;;;;;;;;5020755;28;20520;-84
2024/03/20 13:53:27;;;;;;;2.93;2.20;;;;;;;;;;5005569;28;20217;-85
2024/03/20 13:56:35;;;;;;;4.63;2.47;;;;;;;;;;5027955;28;20186;-85
2024/03/20 13:59:42;;;;;;;3.00;2.10;;;;;;;;;;5016452;28;20183;-85
2024/03/20 14:02:48;;;;;;;4.27;2.30;;;;;;;;;;5005419;28;20219;-85
2024/03/20 14:05:52;;;;;;;2.83;2.37;;;;;;;;;;5038041;28;20183;-85
2024/03/20 14:08:57;;;;;;;2.77;2.40;;;;;;;;;;5050934;28;20179;-85
2024/03/20 14:12:01;;;;;;;3.87;2.50;;;;;;;;;;5032107;28;20212;-85
2024/03/20 14:15:14;;;;;;;2.97;2.60;;;;;;;;;;5042899;28;20627;-85
2024/03/20 14:18:20;;;;;;;4.40;2.13;;;;;;;;;;5044656;28;20186;-86
2024/03/20 14:21:27;;;;;;;4.07;2.40;;;;;;;;;;5021482;28;20185;-86
2024/03/20 14:24:31;;;;;;;4.93;2.60;;;;;;;;;;5043260;28;20208;-86
2024/03/20 14:27:37;;;;;;;4.03;2.53;;;;;;;;;;5043343;28;20180;-86
2024/03/20 14:30:41;;;;;;;4.73;2.37;;;;;;;;;;5047222;28;20188;-85
2024/03/20 14:33:47;;;;;;;2.50;2.30;;;;;;;;;;5038896;28;20173;-85
2024/03/20 14:36:51;;;;;;;3.63;2.67;;;;;;;;;;5040669;28;20193;-84
2024/03/20 14:39:56;;;;;;;3.70;2.73;;;;;;;;;;5053563;28;20177;-85
2024/03/20 14:43:01;;;;;;;4.83;2.73;;;;;;;;;;5052407;28;20221;-85
2024/03/20 14:46:12;;;;;;;5.33;2.90;;;;;;;;;;5049602;28;20177;-85
2024/03/20 14:49:17;;;;;;;2.40;2.20;;;;;;;;;;5049739;28;20177;-85
2024/03/20 14:52:25;;;;;;;4.73;2.40;;;;;;;;;;5047027;28;20220;-87
2024/03/20 14:55:29;;;;;;;2.83;2.10;;;;;;;;;;5017365;28;20181;-87
2024/03/20 14:58:33;;;;;;;4.73;2.20;;;;;;;;;;5039740;28;20181;-87
2024/03/20 15:01:39;;;;;;;4.00;2.03;;;;;;;;;;5039265;28;20685;-87
2024/03/20 15:04:44;;;;;;;2.53;2.10;;;;;;;;;;5027728;28;20208;-87
2024/03/20 15:07:50;;;;;;;2.20;2.00;;;;;;;;;;5027110;28;20181;-87
2024/03/20 15:11:08;;;;;;;2.13;1.93;;;;;;;;;;5015472;28;20177;-88
2024/03/20 15:14:18;;;;;;;3.03;2.00;;;;;;;;;;5038321;28;20173;-89
2024/03/20 15:17:23;;;;;;;10.37;2.43;;;;;;;;;;5038518;28;20173;-87
2024/03/20 15:20:49;;;;;;;3.80;2.13;;;;;;;;;;5026517;28;20528;-87
2024/03/20 15:23:59;;;;;;;3.47;2.03;;;;;;;;;;5027102;28;20209;-87
2024/03/20 15:27:03;;;;;;;3.53;2.00;;;;;;;;;;5014998;28;20188;-86
2024/03/20 15:30:08;;;;;;;3.20;2.00;;;;;;;;;;5015051;28;20184;-88
2024/03/20 15:33:12;;;;;;;2.97;2.13;;;;;;;;;;5037078;28;20570;-87
2024/03/20 15:36:17;;;;;;;3.90;2.30;;;;;;;;;;5014370;28;20177;-87
2024/03/20 15:39:22;;;;;;;3.53;2.30;;;;;;;;;;5047380;28;20185;-87
2024/03/20 15:42:28;;;;;;;4.43;2.60;;;;;;;;;;5036028;28;20224;-88
2024/03/20 15:45:32;;;;;;;3.63;1.83;;;;;;;;;;5036090;28;20693;-86
2024/03/20 15:48:37;;;;;;;3.20;2.00;;;;;;;;;;5013732;28;20188;-87
2024/03/20 15:51:44;;;;;;;2.83;2.20;;;;;;;;;;5014609;28;20217;-86
2024/03/20 15:54:48;;;;;;;8.17;2.33;;;;;;;;;;5014577;28;20173;-86
2024/03/20 15:57:52;;;;;;;4.17;1.73;;;;;;;;;;5036432;28;20181;-86
2024/03/20 16:00:57;;;;;;;3.33;1.57;;;;;;;;;;5036772;28;20185;-87
2024/03/20 16:04:02;;;;;;;2.13;1.77;;;;;;;;;;5025198;28;20189;-86
2024/03/20 16:07:09;;;;;;;3.40;1.93;;;;;;;;;;5024266;28;20180;-86
2024/03/20 16:10:14;;;;;;;5.60;1.70;;;;;;;;;;5035536;28;20638;-87
2024/03/20 16:13:21;;;;;;;3.00;2.17;;;;;;;;;;5024215;28;20216;-87
2024/03/20 16:16:25;;;;;;;3.40;1.90;;;;;;;;;;5012501;28;20177;-87
2024/03/20 16:23:31;;;;;;;4.97;2.00;;;;;;;;;;5008684;28;20220;-85
2024/03/20 16:26:34;;;;;;;2.83;1.60;;;;;;;;;;5039171;28;20173;-85
2024/03/20 16:29:39;;;;;;;3.90;1.83;;;;;;;;;;5039929;28;20184;-85
2024/03/20 16:32:44;;;;;;;2.17;1.73;;;;;;;;;;5029238;28;20216;-86
2024/03/20 16:35:48;;;;;;;2.20;1.60;;;;;;;;;;5040229;28;20173;-86
2024/03/20 16:38:53;;;;;;;1.90;1.60;;;;;;;;;;5035380;28;20177;-87
2024/03/20 16:41:59;;;;;;;3.57;1.70;;;;;;;;;;5038897;28;20224;-87
2024/03/20 16:45:05;;;;;;;8.73;2.20;;;;;;;;;;5028577;28;20228;-84
2024/03/20 16:48:11;;;;;;;6.77;2.37;;;;;;;;;;5039350;28;20181;-85
2024/03/20 16:51:16;;;;;;;3.67;1.80;;;;;;;;;;5028585;28;20181;-84
2024/03/20 16:54:20;;;;;;;5.57;2.03;;;;;;;;;;5039609;28;20184;-85
2024/03/20 16:57:25;;;;;;;2.87;2.10;;;;;;;;;;5052464;28;20176;-84
2024/03/20 17:00:30;;;;;;;10.60;2.10;;;;;;;;;;5053304;28;20181;-85
2024/03/20 17:03:39;;;;;;;4.57;1.63;;;;;;;;;;5040881;28;20208;-85
2024/03/20 17:06:49;;;;;;;1.97;1.23;;;;;;;;;;5028352;28;20181;-86
2024/03/20 17:09:53;;;;;;;5.10;1.70;;;;;;;;;;5044484;28;20181;-86
2024/03/20 17:13:02;;;;;;;2.83;1.47;;;;;;;;;;5043060;28;20220;-86
2024/03/20 17:16:13;;;;;;;6.07;2.00;;;;;;;;;;5042057;28;20176;-85
2024/03/20 17:19:19;;;;;;;4.83;1.57;;;;;;;;;;5042476;28;20181;-85
2024/03/20 17:22:24;;;;;;;2.80;1.50;;;;;;;;;;5030529;28;20212;-85
2024/03/20 17:25:28;;;;;;;2.63;1.50;;;;;;;;;;5042385;28;20208;-87
2024/03/20 17:28:36;;;;;;;1.30;1.20;;;;;;;;;;5030083;28;20185;-86
2024/03/20 17:31:41;;;;;;;3.33;1.77;;;;;;;;;;5029412;28;20212;-85
2024/03/20 17:34:46;;;;;;;1.40;1.30;;;;;;;;;;5041142;28;20180;-85
2024/03/20 17:37:52;;;;;;;3.10;1.27;;;;;;;;;;5040493;28;20180;-86
2024/03/20 17:40:57;;;;;;;1.83;1.17;;;;;;;;;;5029656;28;20626;-86
2024/03/20 17:44:03;;;;;;;2.63;1.33;;;;;;;;;;5027715;28;20665;-84
2024/03/20 17:47:11;;;;;;;3.03;1.50;;;;;;;;;;5017961;28;20181;-86
2024/03/20 17:50:15;;;;;;;2.77;1.60;;;;;;;;;;5028809;28;20185;-85
2024/03/20 17:53:20;;;;;;;3.20;1.60;;;;;;;;;;5028853;28;20558;-85
2024/03/20 17:56:25;;;;;;;4.20;1.83;;;;;;;;;;5014646;28;20181;-85
2024/03/20 17:59:29;;;;;;;3.90;1.80;;;;;;;;;;5026303;28;20189;-84
2024/03/20 18:02:34;;;;;;;2.97;1.87;;;;;;;;;;5015638;28;20216;-84
2024/03/20 18:05:39;;;;;;;2.83;1.70;;;;;;;;;;5037713;28;20208;-84
2024/03/20 18:08:55;;;;;;;3.20;2.07;;;;;;;;;;5038542;28;20185;-84
2024/03/20 18:12:03;;;;;;;2.87;1.73;;;;;;;;;;5037938;28;20220;-84
2024/03/20 18:15:16;;;;;;;2.93;2.27;;;;;;;;;;5027409;28;20658;-84
2024/03/20 18:18:21;;;;;;;3.57;2.03;;;;;;;;;;5015657;28;20177;-85
2024/03/20 18:21:29;;;;;;;3.23;2.00;;;;;;;;;;5015868;28;20177;-84
2024/03/20 18:24:39;;;;;;;3.67;2.20;;;;;;;;;;5037636;28;20519;-85
2024/03/20 18:27:45;;;;;;;5.87;2.30;;;;;;;;;;5015858;28;20519;-84
2024/03/20 18:30:54;;;;;;;2.63;2.17;;;;;;;;;;5027181;28;20189;-84